sensor_id;sensor_type;location;lat;lon;timestamp;temperature;humidity
19025;DHT22;9645;51.448;6.260;2022-10-17T00:00:51;15.60;99.90
19025;DHT22;9645;51.448;6.260;2022-10-17T00:03:19;15.60;99.90
19025;DHT22;9645;51.448;6.260;2022-10-17T00:05:47;15.60;99.90
19025;DHT22;9645;51.448;6.260;2022-10-17T00:08:16;15.50;99.90
19025;DHT22;9645;51.448;6.260;2022-10-17T00:10:44;15.60;99.90
19025;DHT22;9645;51.448;6.260;2022-10-17T00:13:11;15.50;99.90
19025;DHT22;9645;51.448;6.260;2022-10-17T00:15:43;15.60;99.90
19025;DHT22;9645;51.448;6.260;2022-10-17T00:18:10;15.50;99.90
19025;DHT22;9645;51.448;6.260;2022-10-17T00:20:39;15.60;99.90
19025;DHT22;9645;51.448;6.260;2022-10-17T00:23:07;15.60;99.90
19025;DHT22;9645;51.448;6.260;2022-10-17T00:25:34;15.60;99.90
19025;DHT22;9645;51.448;6.260;2022-10-17T00:28:05;15.50;99.90
19025;DHT22;9645;51.448;6.260;2022-10-17T00:30:37;15.50;99.90
19025;DHT22;9645;51.448;6.260;2022-10-17T00:33:04;15.40;99.90
19025;DHT22;9645;51.448;6.260;2022-10-17T00:35:31;15.50;99.90
19025;DHT22;9645;51.448;6.260;2022-10-17T00:38:00;15.40;99.90
19025;DHT22;9645;51.448;6.260;2022-10-17T00:40:28;15.40;99.90
19025;DHT22;9645;51.448;6.260;2022-10-17T00:42:56;15.40;99.90
19025;DHT22;9645;51.448;6.260;2022-10-17T00:45:24;15.40;99.90
19025;DHT22;9645;51.448;6.260;2022-10-17T00:47:58;15.40;99.90
19025;DHT22;9645;51.448;6.260;2022-10-17T00:50:26;15.40;99.90
19025;DHT22;9645;51.448;6.260;2022-10-17T00:52:55;15.40;99.90
19025;DHT22;9645;51.448;6.260;2022-10-17T00:55:27;15.30;99.90
19025;DHT22;9645;51.448;6.260;2022-10-17T00:57:57;15.40;99.90
19025;DHT22;9645;51.448;6.260;2022-10-17T01:00:26;15.40;99.90
19025;DHT22;9645;51.448;6.260;2022-10-17T01:02:54;15.30;99.90
19025;DHT22;9645;51.448;6.260;2022-10-17T01:05:22;15.30;99.90
19025;DHT22;9645;51.448;6.260;2022-10-17T01:07:51;15.20;99.90
19025;DHT22;9645;51.448;6.260;2022-10-17T01:10:19;15.30;99.90
19025;DHT22;9645;51.448;6.260;2022-10-17T01:12:57;15.30;99.90
19025;DHT22;9645;51.448;6.260;2022-10-17T01:15:36;15.20;99.90
19025;DHT22;9645;51.448;6.260;2022-10-17T01:18:14;15.20;99.90
19025;DHT22;9645;51.448;6.260;2022-10-17T01:21:23;15.10;99.90
19025;DHT22;9645;51.448;6.260;2022-10-17T01:27:17;15.10;99.90
19025;DHT22;9645;51.448;6.260;2022-10-17T01:29:59;15.00;99.90
19025;DHT22;9645;51.448;6.260;2022-10-17T01:32:33;15.10;99.90
19025;DHT22;9645;51.448;6.260;2022-10-17T01:35:04;15.00;99.90
19025;DHT22;9645;51.448;6.260;2022-10-17T01:37:39;15.00;99.90
19025;DHT22;9645;51.448;6.260;2022-10-17T01:40:14;15.00;99.90
19025;DHT22;9645;51.448;6.260;2022-10-17T01:42:50;15.00;99.90
19025;DHT22;9645;51.448;6.260;2022-10-17T01:45:22;15.00;99.90
19025;DHT22;9645;51.448;6.260;2022-10-17T01:47:53;15.00;99.90
19025;DHT22;9645;51.448;6.260;2022-10-17T01:50:24;15.00;99.90
19025;DHT22;9645;51.448;6.260;2022-10-17T01:52:58;15.00;99.90
19025;DHT22;9645;51.448;6.260;2022-10-17T01:55:30;14.90;99.90
19025;DHT22;9645;51.448;6.260;2022-10-17T01:58:01;14.80;99.90
19025;DHT22;9645;51.448;6.260;2022-10-17T02:00:30;14.80;99.90
19025;DHT22;9645;51.448;6.260;2022-10-17T02:03:01;14.80;99.90
19025;DHT22;9645;51.448;6.260;2022-10-17T02:05:32;14.80;99.90
19025;DHT22;9645;51.448;6.260;2022-10-17T02:08:01;14.80;99.90
19025;DHT22;9645;51.448;6.260;2022-10-17T02:10:32;14.80;99.90
19025;DHT22;9645;51.448;6.260;2022-10-17T02:13:05;14.80;99.90
19025;DHT22;9645;51.448;6.260;2022-10-17T02:15:54;14.80;99.90
19025;DHT22;9645;51.448;6.260;2022-10-17T02:18:43;14.80;99.90
19025;DHT22;9645;51.448;6.260;2022-10-17T02:21:18;14.80;99.90
19025;DHT22;9645;51.448;6.260;2022-10-17T02:23:52;14.80;99.90
19025;DHT22;9645;51.448;6.260;2022-10-17T02:26:25;14.80;99.90
19025;DHT22;9645;51.448;6.260;2022-10-17T02:29:02;14.80;99.90
19025;DHT22;9645;51.448;6.260;2022-10-17T02:31:34;14.80;99.90
19025;DHT22;9645;51.448;6.260;2022-10-17T02:34:05;14.80;99.90
19025;DHT22;9645;51.448;6.260;2022-10-17T02:36:35;14.80;99.90
19025;DHT22;9645;51.448;6.260;2022-10-17T02:39:04;14.70;99.90
19025;DHT22;9645;51.448;6.260;2022-10-17T02:41:33;14.70;99.90
19025;DHT22;9645;51.448;6.260;2022-10-17T02:44:02;14.70;99.90
19025;DHT22;9645;51.448;6.260;2022-10-17T02:46:30;14.70;99.90
19025;DHT22;9645;51.448;6.260;2022-10-17T02:49:01;14.60;99.90
19025;DHT22;9645;51.448;6.260;2022-10-17T02:51:37;14.70;99.90
19025;DHT22;9645;51.448;6.260;2022-10-17T02:54:10;14.70;99.90
19025;DHT22;9645;51.448;6.260;2022-10-17T02:56:42;14.70;99.90
19025;DHT22;9645;51.448;6.260;2022-10-17T02:59:13;14.70;99.90
19025;DHT22;9645;51.448;6.260;2022-10-17T03:01:41;14.60;99.90
19025;DHT22;9645;51.448;6.260;2022-10-17T03:04:10;14.70;99.90
19025;DHT22;9645;51.448;6.260;2022-10-17T03:06:39;14.70;99.90
19025;DHT22;9645;51.448;6.260;2022-10-17T03:09:06;14.70;99.90
19025;DHT22;9645;51.448;6.260;2022-10-17T03:11:33;14.70;99.90
19025;DHT22;9645;51.448;6.260;2022-10-17T03:14:00;14.70;99.90
19025;DHT22;9645;51.448;6.260;2022-10-17T03:16:27;14.70;99.90
19025;DHT22;9645;51.448;6.260;2022-10-17T03:18:54;14.70;99.90
19025;DHT22;9645;51.448;6.260;2022-10-17T03:21:21;14.70;99.90
19025;DHT22;9645;51.448;6.260;2022-10-17T03:23:50;14.70;99.90
19025;DHT22;9645;51.448;6.260;2022-10-17T03:26:17;14.70;99.90
19025;DHT22;9645;51.448;6.260;2022-10-17T03:28:44;14.70;99.90
19025;DHT22;9645;51.448;6.260;2022-10-17T03:31:15;14.60;99.90
19025;DHT22;9645;51.448;6.260;2022-10-17T03:33:42;14.60;99.90
19025;DHT22;9645;51.448;6.260;2022-10-17T03:36:12;14.60;99.90
19025;DHT22;9645;51.448;6.260;2022-10-17T03:38:39;14.60;99.90
19025;DHT22;9645;51.448;6.260;2022-10-17T03:41:08;14.60;99.90
19025;DHT22;9645;51.448;6.260;2022-10-17T03:43:35;14.60;99.90
19025;DHT22;9645;51.448;6.260;2022-10-17T03:46:02;14.60;99.90
19025;DHT22;9645;51.448;6.260;2022-10-17T03:48:30;14.60;99.90
19025;DHT22;9645;51.448;6.260;2022-10-17T03:50:58;14.60;99.90
19025;DHT22;9645;51.448;6.260;2022-10-17T03:53:26;14.70;99.90
19025;DHT22;9645;51.448;6.260;2022-10-17T03:55:53;14.70;99.90
19025;DHT22;9645;51.448;6.260;2022-10-17T03:58:21;14.80;99.90
19025;DHT22;9645;51.448;6.260;2022-10-17T04:00:48;14.80;99.90
19025;DHT22;9645;51.448;6.260;2022-10-17T04:03:15;14.80;99.90
19025;DHT22;9645;51.448;6.260;2022-10-17T04:05:42;14.80;99.90
19025;DHT22;9645;51.448;6.260;2022-10-17T04:08:09;14.80;99.90
19025;DHT22;9645;51.448;6.260;2022-10-17T04:10:36;14.70;99.90
19025;DHT22;9645;51.448;6.260;2022-10-17T04:13:03;14.80;99.90
19025;DHT22;9645;51.448;6.260;2022-10-17T04:15:32;14.80;99.90
19025;DHT22;9645;51.448;6.260;2022-10-17T04:17:59;14.80;99.90
19025;DHT22;9645;51.448;6.260;2022-10-17T04:20:26;14.80;99.90
19025;DHT22;9645;51.448;6.260;2022-10-17T04:22:53;14.70;99.90
19025;DHT22;9645;51.448;6.260;2022-10-17T04:25:20;14.80;99.90
19025;DHT22;9645;51.448;6.260;2022-10-17T04:27:48;14.70;99.90
19025;DHT22;9645;51.448;6.260;2022-10-17T04:30:16;14.80;99.90
19025;DHT22;9645;51.448;6.260;2022-10-17T04:32:44;14.70;99.90
19025;DHT22;9645;51.448;6.260;2022-10-17T04:35:11;14.70;99.90
19025;DHT22;9645;51.448;6.260;2022-10-17T04:37:38;14.70;99.90
19025;DHT22;9645;51.448;6.260;2022-10-17T04:40:06;14.70;99.90
19025;DHT22;9645;51.448;6.260;2022-10-17T04:42:34;14.70;99.90
19025;DHT22;9645;51.448;6.260;2022-10-17T04:45:01;14.70;99.90
19025;DHT22;9645;51.448;6.260;2022-10-17T04:47:28;14.70;99.90
19025;DHT22;9645;51.448;6.260;2022-10-17T04:49:56;14.80;99.90
19025;DHT22;9645;51.448;6.260;2022-10-17T04:52:23;14.90;99.90
19025;DHT22;9645;51.448;6.260;2022-10-17T04:54:51;14.80;99.90
19025;DHT22;9645;51.448;6.260;2022-10-17T04:57:18;14.90;99.90
19025;DHT22;9645;51.448;6.260;2022-10-17T04:59:45;14.90;99.90
19025;DHT22;9645;51.448;6.260;2022-10-17T05:02:12;14.90;99.90
19025;DHT22;9645;51.448;6.260;2022-10-17T05:04:39;14.90;99.90
19025;DHT22;9645;51.448;6.260;2022-10-17T05:07:07;14.90;99.90
19025;DHT22;9645;51.448;6.260;2022-10-17T05:09:34;14.90;99.90
19025;DHT22;9645;51.448;6.260;2022-10-17T05:12:01;15.00;99.90
19025;DHT22;9645;51.448;6.260;2022-10-17T05:14:28;15.00;99.90
19025;DHT22;9645;51.448;6.260;2022-10-17T05:16:55;15.00;99.90
19025;DHT22;9645;51.448;6.260;2022-10-17T05:19:22;14.90;99.90
19025;DHT22;9645;51.448;6.260;2022-10-17T05:21:49;14.80;99.90
19025;DHT22;9645;51.448;6.260;2022-10-17T05:24:18;14.80;99.90
19025;DHT22;9645;51.448;6.260;2022-10-17T05:26:45;14.90;99.90
19025;DHT22;9645;51.448;6.260;2022-10-17T05:29:12;14.90;99.90
19025;DHT22;9645;51.448;6.260;2022-10-17T05:31:39;14.80;99.90
19025;DHT22;9645;51.448;6.260;2022-10-17T05:34:06;14.80;99.90
19025;DHT22;9645;51.448;6.260;2022-10-17T05:36:33;14.90;99.90
19025;DHT22;9645;51.448;6.260;2022-10-17T05:39:00;14.90;99.90
19025;DHT22;9645;51.448;6.260;2022-10-17T05:41:29;14.90;99.90
19025;DHT22;9645;51.448;6.260;2022-10-17T05:43:57;14.90;99.90
19025;DHT22;9645;51.448;6.260;2022-10-17T05:46:24;14.90;99.90
19025;DHT22;9645;51.448;6.260;2022-10-17T05:48:52;14.80;99.90
19025;DHT22;9645;51.448;6.260;2022-10-17T05:51:20;14.80;99.90
19025;DHT22;9645;51.448;6.260;2022-10-17T05:53:47;14.80;99.90
19025;DHT22;9645;51.448;6.260;2022-10-17T05:56:14;14.80;99.90
19025;DHT22;9645;51.448;6.260;2022-10-17T05:58:43;14.70;99.90
19025;DHT22;9645;51.448;6.260;2022-10-17T06:01:11;14.80;99.90
19025;DHT22;9645;51.448;6.260;2022-10-17T06:03:39;14.80;99.90
19025;DHT22;9645;51.448;6.260;2022-10-17T06:06:07;14.80;99.90
19025;DHT22;9645;51.448;6.260;2022-10-17T06:08:34;14.90;99.90
19025;DHT22;9645;51.448;6.260;2022-10-17T06:11:02;14.90;99.90
19025;DHT22;9645;51.448;6.260;2022-10-17T06:13:29;14.80;99.90
19025;DHT22;9645;51.448;6.260;2022-10-17T06:15:58;14.90;99.90
19025;DHT22;9645;51.448;6.260;2022-10-17T06:18:25;15.00;99.90
19025;DHT22;9645;51.448;6.260;2022-10-17T06:20:52;15.00;99.90
19025;DHT22;9645;51.448;6.260;2022-10-17T06:23:19;15.00;99.90
19025;DHT22;9645;51.448;6.260;2022-10-17T06:25:46;15.10;99.90
19025;DHT22;9645;51.448;6.260;2022-10-17T06:28:12;15.10;99.90
19025;DHT22;9645;51.448;6.260;2022-10-17T06:30:40;15.10;99.90
19025;DHT22;9645;51.448;6.260;2022-10-17T06:33:08;15.10;99.90
19025;DHT22;9645;51.448;6.260;2022-10-17T06:35:35;15.10;99.90
19025;DHT22;9645;51.448;6.260;2022-10-17T06:38:03;15.20;99.90
19025;DHT22;9645;51.448;6.260;2022-10-17T06:40:30;15.30;99.90
19025;DHT22;9645;51.448;6.260;2022-10-17T06:42:57;15.30;99.90
19025;DHT22;9645;51.448;6.260;2022-10-17T06:45:24;15.40;99.90
19025;DHT22;9645;51.448;6.260;2022-10-17T06:47:51;15.40;99.90
19025;DHT22;9645;51.448;6.260;2022-10-17T06:50:19;15.50;99.90
19025;DHT22;9645;51.448;6.260;2022-10-17T06:52:49;15.60;99.90
19025;DHT22;9645;51.448;6.260;2022-10-17T06:55:16;15.70;99.90
19025;DHT22;9645;51.448;6.260;2022-10-17T06:57:43;15.80;99.90
19025;DHT22;9645;51.448;6.260;2022-10-17T07:00:11;15.90;99.90
19025;DHT22;9645;51.448;6.260;2022-10-17T07:02:38;16.10;99.90
19025;DHT22;9645;51.448;6.260;2022-10-17T07:05:06;16.30;99.90
19025;DHT22;9645;51.448;6.260;2022-10-17T07:07:34;16.70;99.90
19025;DHT22;9645;51.448;6.260;2022-10-17T07:10:01;16.90;99.90
19025;DHT22;9645;51.448;6.260;2022-10-17T07:12:29;16.90;99.90
19025;DHT22;9645;51.448;6.260;2022-10-17T07:14:55;17.10;99.90
19025;DHT22;9645;51.448;6.260;2022-10-17T07:17:23;17.20;99.90
19025;DHT22;9645;51.448;6.260;2022-10-17T07:19:49;17.30;99.90
19025;DHT22;9645;51.448;6.260;2022-10-17T07:22:16;17.50;99.90
19025;DHT22;9645;51.448;6.260;2022-10-17T07:24:45;17.60;99.90
19025;DHT22;9645;51.448;6.260;2022-10-17T07:27:12;17.90;99.90
19025;DHT22;9645;51.448;6.260;2022-10-17T07:29:40;18.00;99.90
19025;DHT22;9645;51.448;6.260;2022-10-17T07:32:07;17.90;99.90
19025;DHT22;9645;51.448;6.260;2022-10-17T07:34:34;17.80;99.90
19025;DHT22;9645;51.448;6.260;2022-10-17T07:37:01;17.70;99.90
19025;DHT22;9645;51.448;6.260;2022-10-17T07:39:28;17.70;99.90
19025;DHT22;9645;51.448;6.260;2022-10-17T07:41:57;17.80;99.90
19025;DHT22;9645;51.448;6.260;2022-10-17T07:44:24;18.20;99.90
19025;DHT22;9645;51.448;6.260;2022-10-17T07:46:51;19.10;99.90
19025;DHT22;9645;51.448;6.260;2022-10-17T07:49:18;20.10;99.90
19025;DHT22;9645;51.448;6.260;2022-10-17T07:51:46;21.00;99.90
19025;DHT22;9645;51.448;6.260;2022-10-17T07:54:13;21.50;99.90
19025;DHT22;9645;51.448;6.260;2022-10-17T07:56:40;21.80;99.90
19025;DHT22;9645;51.448;6.260;2022-10-17T07:59:09;22.60;99.90
19025;DHT22;9645;51.448;6.260;2022-10-17T08:01:36;23.50;99.90
19025;DHT22;9645;51.448;6.260;2022-10-17T08:04:03;23.80;99.90
19025;DHT22;9645;51.448;6.260;2022-10-17T08:06:30;23.90;99.90
19025;DHT22;9645;51.448;6.260;2022-10-17T08:08:57;24.10;99.90
19025;DHT22;9645;51.448;6.260;2022-10-17T08:11:24;25.10;99.90
19025;DHT22;9645;51.448;6.260;2022-10-17T08:13:51;26.00;99.90
19025;DHT22;9645;51.448;6.260;2022-10-17T08:16:19;26.30;99.90
19025;DHT22;9645;51.448;6.260;2022-10-17T08:18:46;25.90;99.90
19025;DHT22;9645;51.448;6.260;2022-10-17T08:21:13;25.80;99.90
19025;DHT22;9645;51.448;6.260;2022-10-17T08:23:40;25.80;99.90
19025;DHT22;9645;51.448;6.260;2022-10-17T08:26:07;25.10;99.90
19025;DHT22;9645;51.448;6.260;2022-10-17T08:28:38;24.50;99.90
19025;DHT22;9645;51.448;6.260;2022-10-17T08:31:07;24.40;99.90
19025;DHT22;9645;51.448;6.260;2022-10-17T08:33:36;25.00;99.90
19025;DHT22;9645;51.448;6.260;2022-10-17T08:36:05;25.90;99.90
19025;DHT22;9645;51.448;6.260;2022-10-17T08:38:32;26.70;99.90
19025;DHT22;9645;51.448;6.260;2022-10-17T08:41:01;26.10;99.90
19025;DHT22;9645;51.448;6.260;2022-10-17T08:43:43;25.10;99.90
19025;DHT22;9645;51.448;6.260;2022-10-17T08:46:13;23.90;99.90
19025;DHT22;9645;51.448;6.260;2022-10-17T08:48:43;23.10;99.90
19025;DHT22;9645;51.448;6.260;2022-10-17T08:51:14;22.60;99.90
19025;DHT22;9645;51.448;6.260;2022-10-17T08:53:48;22.20;99.90
19025;DHT22;9645;51.448;6.260;2022-10-17T08:56:18;21.90;99.90
19025;DHT22;9645;51.448;6.260;2022-10-17T08:58:46;21.60;99.90
19025;DHT22;9645;51.448;6.260;2022-10-17T09:01:28;21.40;99.90
19025;DHT22;9645;51.448;6.260;2022-10-17T09:04:10;21.20;99.90
19025;DHT22;9645;51.448;6.260;2022-10-17T09:06:47;20.90;99.90
19025;DHT22;9645;51.448;6.260;2022-10-17T09:09:26;20.60;99.90
19025;DHT22;9645;51.448;6.260;2022-10-17T09:12:10;20.40;99.90
19025;DHT22;9645;51.448;6.260;2022-10-17T09:14:54;20.30;99.90
19025;DHT22;9645;51.448;6.260;2022-10-17T09:17:33;20.10;99.90
19025;DHT22;9645;51.448;6.260;2022-10-17T09:20:09;20.10;99.90
19025;DHT22;9645;51.448;6.260;2022-10-17T09:22:43;20.00;99.90
19025;DHT22;9645;51.448;6.260;2022-10-17T09:25:15;20.00;99.90
19025;DHT22;9645;51.448;6.260;2022-10-17T09:27:45;20.00;99.90
19025;DHT22;9645;51.448;6.260;2022-10-17T09:30:24;19.90;99.90
19025;DHT22;9645;51.448;6.260;2022-10-17T09:32:53;19.80;99.90
19025;DHT22;9645;51.448;6.260;2022-10-17T09:35:23;19.80;99.90
19025;DHT22;9645;51.448;6.260;2022-10-17T09:37:51;19.80;99.90
19025;DHT22;9645;51.448;6.260;2022-10-17T09:40:21;19.70;99.90
19025;DHT22;9645;51.448;6.260;2022-10-17T09:42:50;19.70;99.90
19025;DHT22;9645;51.448;6.260;2022-10-17T09:45:19;19.60;99.90
19025;DHT22;9645;51.448;6.260;2022-10-17T09:47:54;19.40;99.90
19025;DHT22;9645;51.448;6.260;2022-10-17T09:50:26;19.40;99.90
19025;DHT22;9645;51.448;6.260;2022-10-17T09:52:55;19.30;99.90
19025;DHT22;9645;51.448;6.260;2022-10-17T09:55:30;19.30;99.90
19025;DHT22;9645;51.448;6.260;2022-10-17T09:58:00;19.20;99.90
19025;DHT22;9645;51.448;6.260;2022-10-17T10:00:29;19.20;99.90
19025;DHT22;9645;51.448;6.260;2022-10-17T10:03:08;18.00;99.90
19025;DHT22;9645;51.448;6.260;2022-10-17T10:05:37;19.20;99.90
19025;DHT22;9645;51.448;6.260;2022-10-17T10:08:10;19.20;99.90
19025;DHT22;9645;51.448;6.260;2022-10-17T10:10:38;19.20;99.90
19025;DHT22;9645;51.448;6.260;2022-10-17T10:13:16;19.30;99.90
19025;DHT22;9645;51.448;6.260;2022-10-17T10:15:46;19.30;99.90
19025;DHT22;9645;51.448;6.260;2022-10-17T10:18:28;19.20;99.90
19025;DHT22;9645;51.448;6.260;2022-10-17T10:21:05;19.20;99.90
19025;DHT22;9645;51.448;6.260;2022-10-17T10:23:33;19.20;99.90
19025;DHT22;9645;51.448;6.260;2022-10-17T10:26:13;19.10;99.90
19025;DHT22;9645;51.448;6.260;2022-10-17T10:28:51;19.20;99.90
19025;DHT22;9645;51.448;6.260;2022-10-17T10:31:29;19.10;99.90
19025;DHT22;9645;51.448;6.260;2022-10-17T10:33:58;19.10;99.90
19025;DHT22;9645;51.448;6.260;2022-10-17T10:36:45;19.20;99.90
19025;DHT22;9645;51.448;6.260;2022-10-17T10:39:31;19.20;99.90
19025;DHT22;9645;51.448;6.260;2022-10-17T10:41:59;19.20;99.90
19025;DHT22;9645;51.448;6.260;2022-10-17T10:44:28;19.10;99.90
19025;DHT22;9645;51.448;6.260;2022-10-17T10:47:29;19.00;99.90
19025;DHT22;9645;51.448;6.260;2022-10-17T10:50:15;18.80;99.90
19025;DHT22;9645;51.448;6.260;2022-10-17T10:52:47;18.70;99.90
19025;DHT22;9645;51.448;6.260;2022-10-17T10:55:19;18.70;99.90
19025;DHT22;9645;51.448;6.260;2022-10-17T10:57:51;18.60;99.90
19025;DHT22;9645;51.448;6.260;2022-10-17T11:00:21;18.50;99.90
19025;DHT22;9645;51.448;6.260;2022-10-17T11:02:55;18.60;99.90
19025;DHT22;9645;51.448;6.260;2022-10-17T11:05:35;18.50;99.90
19025;DHT22;9645;51.448;6.260;2022-10-17T11:08:13;18.50;99.90
19025;DHT22;9645;51.448;6.260;2022-10-17T11:10:46;18.60;99.90
19025;DHT22;9645;51.448;6.260;2022-10-17T11:13:20;18.70;99.90
19025;DHT22;9645;51.448;6.260;2022-10-17T11:15:54;18.80;99.90
19025;DHT22;9645;51.448;6.260;2022-10-17T11:18:25;18.80;99.90
19025;DHT22;9645;51.448;6.260;2022-10-17T11:20:56;18.80;99.90
19025;DHT22;9645;51.448;6.260;2022-10-17T11:23:33;18.90;99.90
19025;DHT22;9645;51.448;6.260;2022-10-17T11:26:05;19.00;99.90
19025;DHT22;9645;51.448;6.260;2022-10-17T11:28:34;19.20;99.90
19025;DHT22;9645;51.448;6.260;2022-10-17T11:31:03;19.20;99.90
19025;DHT22;9645;51.448;6.260;2022-10-17T11:33:44;19.30;99.90
19025;DHT22;9645;51.448;6.260;2022-10-17T11:36:12;19.30;99.90
19025;DHT22;9645;51.448;6.260;2022-10-17T11:38:46;19.20;99.90
19025;DHT22;9645;51.448;6.260;2022-10-17T11:41:18;19.10;99.90
19025;DHT22;9645;51.448;6.260;2022-10-17T11:43:52;19.10;99.90
19025;DHT22;9645;51.448;6.260;2022-10-17T11:46:21;19.00;99.90
19025;DHT22;9645;51.448;6.260;2022-10-17T11:48:59;18.90;99.90
19025;DHT22;9645;51.448;6.260;2022-10-17T11:51:29;18.90;99.90
19025;DHT22;9645;51.448;6.260;2022-10-17T11:54:05;18.90;99.90
19025;DHT22;9645;51.448;6.260;2022-10-17T11:56:37;19.00;99.90
19025;DHT22;9645;51.448;6.260;2022-10-17T11:59:38;19.00;99.90
19025;DHT22;9645;51.448;6.260;2022-10-17T12:02:13;19.00;99.90
19025;DHT22;9645;51.448;6.260;2022-10-17T12:04:51;19.00;99.90
19025;DHT22;9645;51.448;6.260;2022-10-17T12:07:26;19.00;99.90
19025;DHT22;9645;51.448;6.260;2022-10-17T12:10:03;19.00;99.90
19025;DHT22;9645;51.448;6.260;2022-10-17T12:12:35;19.00;99.90
19025;DHT22;9645;51.448;6.260;2022-10-17T12:15:26;19.10;99.90
19025;DHT22;9645;51.448;6.260;2022-10-17T12:17:55;19.20;99.90
19025;DHT22;9645;51.448;6.260;2022-10-17T12:20:28;19.10;99.90
19025;DHT22;9645;51.448;6.260;2022-10-17T12:23:02;19.20;99.90
19025;DHT22;9645;51.448;6.260;2022-10-17T12:25:33;19.20;99.90
19025;DHT22;9645;51.448;6.260;2022-10-17T12:28:13;19.10;99.90
19025;DHT22;9645;51.448;6.260;2022-10-17T12:30:54;19.10;99.90
19025;DHT22;9645;51.448;6.260;2022-10-17T12:33:31;19.10;99.90
19025;DHT22;9645;51.448;6.260;2022-10-17T12:39:47;18.90;99.90
19025;DHT22;9645;51.448;6.260;2022-10-17T12:42:49;19.10;99.90
19025;DHT22;9645;51.448;6.260;2022-10-17T12:45:48;19.20;99.90
19025;DHT22;9645;51.448;6.260;2022-10-17T12:51:21;19.10;99.90
19025;DHT22;9645;51.448;6.260;2022-10-17T12:53:55;19.00;99.90
19025;DHT22;9645;51.448;6.260;2022-10-17T12:56:31;18.90;99.90
19025;DHT22;9645;51.448;6.260;2022-10-17T12:59:07;18.90;99.90
19025;DHT22;9645;51.448;6.260;2022-10-17T13:01:37;18.80;99.90
19025;DHT22;9645;51.448;6.260;2022-10-17T13:04:08;18.70;99.90
19025;DHT22;9645;51.448;6.260;2022-10-17T13:06:39;18.70;99.90
19025;DHT22;9645;51.448;6.260;2022-10-17T13:09:19;18.60;99.90
19025;DHT22;9645;51.448;6.260;2022-10-17T13:11:49;18.60;99.90
19025;DHT22;9645;51.448;6.260;2022-10-17T13:14:20;18.60;99.90
19025;DHT22;9645;51.448;6.260;2022-10-17T13:16:53;18.60;99.90
19025;DHT22;9645;51.448;6.260;2022-10-17T13:19:23;18.70;99.90
19025;DHT22;9645;51.448;6.260;2022-10-17T13:21:50;18.70;99.90
19025;DHT22;9645;51.448;6.260;2022-10-17T13:24:22;18.70;99.90
19025;DHT22;9645;51.448;6.260;2022-10-17T13:26:49;18.70;99.90
19025;DHT22;9645;51.448;6.260;2022-10-17T13:29:17;18.70;99.90
19025;DHT22;9645;51.448;6.260;2022-10-17T13:31:51;18.60;99.90
19025;DHT22;9645;51.448;6.260;2022-10-17T13:34:20;18.60;99.90
19025;DHT22;9645;51.448;6.260;2022-10-17T13:36:49;18.50;99.90
19025;DHT22;9645;51.448;6.260;2022-10-17T13:39:21;18.50;99.90
19025;DHT22;9645;51.448;6.260;2022-10-17T13:41:49;18.60;99.90
19025;DHT22;9645;51.448;6.260;2022-10-17T13:44:20;18.60;99.90
19025;DHT22;9645;51.448;6.260;2022-10-17T13:46:48;18.60;99.90
19025;DHT22;9645;51.448;6.260;2022-10-17T13:49:22;18.60;99.90
19025;DHT22;9645;51.448;6.260;2022-10-17T13:51:51;18.70;99.90
19025;DHT22;9645;51.448;6.260;2022-10-17T13:54:32;18.70;99.90
19025;DHT22;9645;51.448;6.260;2022-10-17T13:57:00;18.70;99.90
19025;DHT22;9645;51.448;6.260;2022-10-17T13:59:33;18.70;99.90
19025;DHT22;9645;51.448;6.260;2022-10-17T14:02:02;18.60;99.90
19025;DHT22;9645;51.448;6.260;2022-10-17T14:04:30;18.60;99.90
19025;DHT22;9645;51.448;6.260;2022-10-17T14:06:57;18.60;99.90
19025;DHT22;9645;51.448;6.260;2022-10-17T14:09:26;18.50;99.90
19025;DHT22;9645;51.448;6.260;2022-10-17T14:12:01;18.50;99.90
19025;DHT22;9645;51.448;6.260;2022-10-17T14:14:29;18.40;99.90
19025;DHT22;9645;51.448;6.260;2022-10-17T14:16:56;18.40;99.90
19025;DHT22;9645;51.448;6.260;2022-10-17T14:19:26;18.40;99.90
19025;DHT22;9645;51.448;6.260;2022-10-17T14:21:54;18.30;99.90
19025;DHT22;9645;51.448;6.260;2022-10-17T14:24:29;18.30;99.90
19025;DHT22;9645;51.448;6.260;2022-10-17T14:26:58;18.30;99.90
19025;DHT22;9645;51.448;6.260;2022-10-17T14:29:27;18.20;99.90
19025;DHT22;9645;51.448;6.260;2022-10-17T14:32:04;18.20;99.90
19025;DHT22;9645;51.448;6.260;2022-10-17T14:34:35;18.30;99.90
19025;DHT22;9645;51.448;6.260;2022-10-17T14:37:08;18.30;99.90
19025;DHT22;9645;51.448;6.260;2022-10-17T14:39:36;18.20;99.90
19025;DHT22;9645;51.448;6.260;2022-10-17T14:42:03;18.20;99.90
19025;DHT22;9645;51.448;6.260;2022-10-17T14:44:32;18.20;99.90
19025;DHT22;9645;51.448;6.260;2022-10-17T14:47:02;18.30;99.90
19025;DHT22;9645;51.448;6.260;2022-10-17T14:49:35;18.30;99.90
19025;DHT22;9645;51.448;6.260;2022-10-17T14:52:28;18.40;99.90
19025;DHT22;9645;51.448;6.260;2022-10-17T14:54:56;18.60;99.90
19025;DHT22;9645;51.448;6.260;2022-10-17T14:57:27;18.60;99.90
19025;DHT22;9645;51.448;6.260;2022-10-17T14:59:55;18.60;99.90
19025;DHT22;9645;51.448;6.260;2022-10-17T15:02:25;18.50;99.90
19025;DHT22;9645;51.448;6.260;2022-10-17T15:04:52;18.50;99.90
19025;DHT22;9645;51.448;6.260;2022-10-17T15:07:20;18.50;99.90
19025;DHT22;9645;51.448;6.260;2022-10-17T15:09:50;18.40;99.90
19025;DHT22;9645;51.448;6.260;2022-10-17T15:12:18;18.40;99.90
19025;DHT22;9645;51.448;6.260;2022-10-17T15:14:45;18.30;99.90
19025;DHT22;9645;51.448;6.260;2022-10-17T15:17:15;18.30;99.90
19025;DHT22;9645;51.448;6.260;2022-10-17T15:19:44;18.20;99.90
19025;DHT22;9645;51.448;6.260;2022-10-17T15:22:11;18.20;99.90
19025;DHT22;9645;51.448;6.260;2022-10-17T15:24:39;18.10;99.90
19025;DHT22;9645;51.448;6.260;2022-10-17T15:27:13;18.10;99.90
19025;DHT22;9645;51.448;6.260;2022-10-17T15:29:40;18.00;99.90
19025;DHT22;9645;51.448;6.260;2022-10-17T15:32:07;16.20;99.90
19025;DHT22;9645;51.448;6.260;2022-10-17T15:34:34;18.00;99.90
19025;DHT22;9645;51.448;6.260;2022-10-17T15:37:04;17.90;99.90
19025;DHT22;9645;51.448;6.260;2022-10-17T15:39:32;17.90;99.90
19025;DHT22;9645;51.448;6.260;2022-10-17T15:41:59;17.90;99.90
19025;DHT22;9645;51.448;6.260;2022-10-17T15:44:26;17.80;99.90
19025;DHT22;9645;51.448;6.260;2022-10-17T15:46:54;17.80;99.90
19025;DHT22;9645;51.448;6.260;2022-10-17T15:49:21;17.80;99.90
19025;DHT22;9645;51.448;6.260;2022-10-17T15:51:48;17.70;99.90
19025;DHT22;9645;51.448;6.260;2022-10-17T15:54:17;19.60;99.90
19025;DHT22;9645;51.448;6.260;2022-10-17T15:56:48;17.80;99.90
19025;DHT22;9645;51.448;6.260;2022-10-17T15:59:20;17.70;99.90
19025;DHT22;9645;51.448;6.260;2022-10-17T16:01:48;17.70;99.90
19025;DHT22;9645;51.448;6.260;2022-10-17T16:04:15;17.60;99.90
19025;DHT22;9645;51.448;6.260;2022-10-17T16:06:43;17.60;99.90
19025;DHT22;9645;51.448;6.260;2022-10-17T16:09:10;17.60;99.90
19025;DHT22;9645;51.448;6.260;2022-10-17T16:11:39;17.50;99.90
19025;DHT22;9645;51.448;6.260;2022-10-17T16:14:10;17.50;99.90
19025;DHT22;9645;51.448;6.260;2022-10-17T16:16:37;17.40;99.90